Portada
METAR-TAF:

METAR-TAF

Aeropuertos :

Aeropuerto Internacional de Chuuk

Weno, Micronesia

latitud: 07-28N, longitud: 151-51E, altitud: 3 m

Observación

El informe se hizo hace 1 hora y 0 minutos, a las 18:51 UTC
Viento calma
Temperatura 25°C
Humedad 94%
Presión 1011 hPa
Visibilidad: 22.5 km
Nubes dispersas a una altura de 1200 ft, Cumulonimbus.
Cielo nuboso a una altura de 12000 ft
Cielo cubierto a una altura de 28000 ft
chaparrones de lluvia

METAR: PTKK 211851Z 00000KT 14SM -SHRA SCT012CB BKN120 OVC280 25/24 A2986 RMK SHRAB48 CB ALQDS SLP113 T02490240

Hora: 05:51 (19:51 UTC)

Pronóstico

El informe se hizo hace 2 horas y 21 minutos, a las 17:30 UTC
Pronóstico válido del 21 a las 18 UTC al 22 a las 18 UTC
Viento 5 kt con dirección variable
Visibilidad: 10 km
Nubes dispersas a una altura de 1400 ft
Cielo nuboso a una altura de 12000 ft
chaparrones en las proximidades

TAF: PTKK 211730Z 2118/2218 VRB05KT P6SM VCSH SCT014 BKN120

Observaciones y pronósticos meteorológicos de más de 4000 aeropuertos (mensajes METAR y TAF).

Los puntos amarillos y rojos representan las estaciones disponibles.

Ponga el ratón en el punto deseado para ver el nombre de la estación.

Haga clic para ver las observaciones y los pronósticos meteorológicos.

Para cambiar el mapa : haga clic en los botones verdes con una cruz de color negro para hacer un zoom, en el botón verde con un guión para alejar o en las flechas verdes para mapas adyacentes.


METAR-TAF: